Time;durP1;ratioP1;P1;durP2;ratioP2;P2;SDS_P1;SDS_P2;PMS_P1;PMS_P2;Temp;Humidity;BMP_temperature;BMP_pressure;BME280_temperature;BME280_humidity;BME280_pressure;Samples;Min_cycle;Max_cycle;Signal;HPM_P1;HPM_P2
2022/04/06 00:04:34;;;;;;;3.25;1.48;;;;;;;;;;10398114;28;20067;-77
2022/04/06 00:09:39;;;;;;;2.72;1.70;;;;;;;;;;10396877;28;20076;-77
2022/04/06 00:14:42;;;;;;;4.50;1.90;;;;;;;;;;10398221;28;20087;-79
2022/04/06 00:19:46;;;;;;;5.53;1.98;;;;;;;;;;10397446;28;20053;-75
2022/04/06 00:24:49;;;;;;;;;;;;;;;;;;10382375;28;20102;-76
2022/04/06 00:29:52;;;;;;;4.00;2.03;;;;;;;;;;10393906;28;19921;-77
2022/04/06 00:40:19;;;;;;;3.78;1.85;;;;;;;;;;10393989;28;20037;-76
2022/04/06 00:45:22;;;;;;;1.98;1.25;;;;;;;;;;10391830;28;20100;-76
2022/04/06 00:50:26;;;;;;;3.60;1.80;;;;;;;;;;10389203;28;20045;-76
2022/04/06 00:55:31;;;;;;;5.90;2.55;;;;;;;;;;10393711;28;20067;-77
2022/04/06 01:00:34;;;;;;;3.78;2.05;;;;;;;;;;10395617;28;20045;-75
2022/04/06 01:05:39;;;;;;;4.75;2.38;;;;;;;;;;10400643;28;22573;-77
2022/04/06 01:10:44;;;;;;;5.22;2.50;;;;;;;;;;10417921;28;20049;-76
2022/04/06 01:15:47;;;;;;;7.32;2.60;;;;;;;;;;10420028;28;20049;-76
2022/04/06 01:20:51;;;;;;;4.28;1.95;;;;;;;;;;10390970;28;20041;-76
2022/04/06 01:25:56;;;;;;;3.28;1.65;;;;;;;;;;10393896;28;20069;-75
2022/04/06 01:30:59;;;;;;;5.40;2.25;;;;;;;;;;10387765;28;20696;-74
2022/04/06 01:36:03;;;;;;;1.97;1.10;;;;;;;;;;10383321;28;20120;-77
2022/04/06 01:41:08;;;;;;;8.05;3.30;;;;;;;;;;10401352;28;20048;-77
2022/04/06 01:46:11;;;;;;;8.35;3.20;;;;;;;;;;10403317;28;20029;-77
2022/04/06 01:56:36;;;;;;;5.43;3.40;;;;;;;;;;10400389;28;20374;-76
2022/04/06 02:01:39;;;;;;;5.00;2.67;;;;;;;;;;10376461;28;20086;-75
2022/04/06 02:06:42;;;;;;;5.27;2.40;;;;;;;;;;10392501;28;20022;-77
2022/04/06 02:11:54;;;;;;;3.15;1.75;;;;;;;;;;10387465;28;20541;-76
2022/04/06 02:16:57;;;;;;;7.03;2.40;;;;;;;;;;10388847;28;20085;-76
2022/04/06 02:22:04;;;;;;;3.97;1.90;;;;;;;;;;10387755;28;20677;-76
2022/04/06 02:27:09;;;;;;;7.03;3.42;;;;;;;;;;10367325;28;20036;-78
2022/04/06 02:32:13;;;;;;;6.07;2.50;;;;;;;;;;10383832;28;20104;-74
2022/04/06 02:37:16;;;;;;;8.02;3.38;;;;;;;;;;10399457;28;20042;-77
2022/04/06 02:42:21;;;;;;;5.13;2.30;;;;;;;;;;10388578;28;20037;-75
2022/04/06 02:47:23;;;;;;;4.90;2.60;;;;;;;;;;10379184;28;20360;-76
2022/04/06 02:52:26;;;;;;;8.63;3.80;;;;;;;;;;10383760;28;20095;-77
2022/04/06 02:57:30;;;;;;;3.95;2.10;;;;;;;;;;10396515;28;20030;-76
2022/04/06 03:02:33;;;;;;;2.78;1.73;;;;;;;;;;10397413;28;20040;-76
2022/04/06 03:07:36;;;;;;;8.00;3.00;;;;;;;;;;10399252;28;20033;-75
2022/04/06 03:12:40;;;;;;;5.63;2.80;;;;;;;;;;10379055;28;20128;-75
2022/04/06 03:17:43;;;;;;;8.35;3.58;;;;;;;;;;10379645;28;20069;-76
2022/04/06 03:22:46;;;;;;;5.55;2.53;;;;;;;;;;10379726;28;20065;-77
2022/04/06 03:27:50;;;;;;;7.60;3.53;;;;;;;;;;10383177;28;20068;-74
2022/04/06 03:32:53;;;;;;;3.55;1.58;;;;;;;;;;10395847;28;20565;-76
2022/04/06 03:37:55;;;;;;;7.35;2.95;;;;;;;;;;10396833;28;20034;-76
2022/04/06 03:43:00;;;;;;;22.20;6.72;;;;;;;;;;10374084;28;20049;-77
2022/04/06 03:48:03;;;;;;;;;;;;;;;;;;10387323;28;20445;-75
2022/04/06 03:53:06;;;;;;;23.70;7.07;;;;;;;;;;10391829;28;20444;-75
2022/04/06 03:58:11;;;;;;;16.85;4.40;;;;;;;;;;10395818;28;20065;-74
2022/04/06 04:03:13;;;;;;;;;;;;;;;;;;10374014;28;20037;-75
2022/04/06 04:08:17;;;;;;;9.23;3.63;;;;;;;;;;10377911;28;20002;-75
2022/04/06 04:13:21;;;;;;;5.78;3.00;;;;;;;;;;10392482;28;20099;-75
2022/04/06 04:18:24;;;;;;;9.85;4.80;;;;;;;;;;10392210;28;20410;-73
2022/04/06 04:23:27;;;;;;;10.90;5.60;;;;;;;;;;10377416;28;20069;-75
2022/04/06 04:28:31;;;;;;;6.00;3.25;;;;;;;;;;10393630;28;20037;-74
2022/04/06 04:33:35;;;;;;;8.23;3.25;;;;;;;;;;10387911;28;20092;-76
2022/04/06 04:38:38;;;;;;;11.00;6.10;;;;;;;;;;10371996;28;20064;-76
2022/04/06 04:43:42;;;;;;;4.93;2.95;;;;;;;;;;10387422;28;20049;-76
2022/04/06 04:48:45;;;;;;;4.85;2.33;;;;;;;;;;10389582;28;20044;-74
2022/04/06 04:53:48;;;;;;;3.75;2.00;;;;;;;;;;10388538;28;20131;-74
2022/04/06 04:58:53;;;;;;;2.97;1.80;;;;;;;;;;10376905;28;20037;-74
2022/04/06 05:03:56;;;;;;;5.03;2.08;;;;;;;;;;10394703;28;20108;-74
2022/04/06 05:08:59;;;;;;;5.60;2.50;;;;;;;;;;10392657;28;20493;-74
2022/04/06 05:14:04;;;;;;;5.30;2.58;;;;;;;;;;10393274;28;20033;-75
2022/04/06 05:19:07;;;;;;;5.18;2.50;;;;;;;;;;10369794;28;20107;-76
2022/04/06 05:24:09;;;;;;;8.57;3.58;;;;;;;;;;10384932;28;20095;-74
2022/04/06 05:29:17;;;;;;;21.08;9.30;;;;;;;;;;10391821;28;20340;-75
2022/04/06 05:34:20;;;;;;;4.95;2.47;;;;;;;;;;10373087;28;20060;-74
2022/04/06 05:39:22;;;;;;;5.38;2.80;;;;;;;;;;10381746;28;20095;-75
2022/04/06 05:44:27;;;;;;;4.22;2.35;;;;;;;;;;10386203;28;20065;-75
2022/04/06 05:49:30;;;;;;;4.80;2.42;;;;;;;;;;10364580;28;20492;-74
2022/04/06 05:54:33;;;;;;;4.35;2.65;;;;;;;;;;10387123;28;20132;-72
2022/04/06 05:59:37;;;;;;;6.10;2.80;;;;;;;;;;10371605;28;20080;-74
2022/04/06 06:04:41;;;;;;;6.95;2.70;;;;;;;;;;10382981;28;20049;-72
2022/04/06 06:09:44;;;;;;;5.32;2.75;;;;;;;;;;10376159;28;20037;-74
2022/04/06 06:14:48;;;;;;;4.90;2.30;;;;;;;;;;10395260;28;20199;-76
2022/04/06 06:19:51;;;;;;;3.10;1.80;;;;;;;;;;10395448;28;20053;-74
2022/04/06 06:24:54;;;;;;;4.22;2.25;;;;;;;;;;10395840;28;20116;-72
2022/04/06 06:29:59;;;;;;;6.32;3.20;;;;;;;;;;10376201;28;20045;-73
2022/04/06 06:35:01;;;;;;;7.00;2.83;;;;;;;;;;10396058;28;20068;-74
2022/04/06 06:40:05;;;;;;;3.25;1.73;;;;;;;;;;10392756;28;20046;-75
2022/04/06 06:45:11;;;;;;;4.13;1.80;;;;;;;;;;10395778;28;20050;-73
2022/04/06 06:50:15;;;;;;;2.85;1.98;;;;;;;;;;10389448;28;20038;-74
2022/04/06 06:55:19;;;;;;;3.25;2.10;;;;;;;;;;10372574;28;20060;-74
2022/04/06 07:00:23;;;;;;;7.40;3.30;;;;;;;;;;10394209;28;20398;-74
2022/04/06 07:05:28;;;;;;;6.43;3.47;;;;;;;;;;10375444;28;20049;-71
2022/04/06 07:10:30;;;;;;;2.80;1.48;;;;;;;;;;10387990;28;20038;-75
2022/04/06 07:15:35;;;;;;;4.85;2.33;;;;;;;;;;10397652;28;20052;-74
2022/04/06 07:20:38;;;;;;;5.40;2.85;;;;;;;;;;10365305;28;20133;-72
2022/04/06 07:25:41;;;;;;;1.60;1.33;;;;;;;;;;10375387;28;20041;-74
2022/04/06 07:30:45;;;;;;;5.13;2.33;;;;;;;;;;10394633;28;20537;-74
2022/04/06 07:35:48;;;;;;;5.88;2.75;;;;;;;;;;10391391;28;20409;-73
2022/04/06 07:40:54;;;;;;;5.70;3.08;;;;;;;;;;10403919;28;20042;-74
2022/04/06 07:45:58;;;;;;;6.13;2.90;;;;;;;;;;10374746;28;20041;-75
2022/04/06 07:51:01;;;;;;;3.50;2.33;;;;;;;;;;10386773;28;20038;-75
2022/04/06 07:56:05;;;;;;;;;;;;;;;;;;10370829;28;20080;-73
2022/04/06 08:01:09;;;;;;;4.03;2.88;;;;;;;;;;10388811;28;19960;-74
2022/04/06 08:06:12;;;;;;;4.72;3.40;;;;;;;;;;10388931;28;20355;-75
2022/04/06 08:11:14;;;;;;;4.53;3.00;;;;;;;;;;10393643;28;20050;-75
2022/04/06 08:16:19;;;;;;;4.72;3.38;;;;;;;;;;10387032;28;20168;-74
2022/04/06 08:21:33;;;;;;;4.43;3.22;;;;;;;;;;10386647;28;20087;-75
2022/04/06 08:26:46;;;;;;;5.05;3.00;;;;;;;;;;10389431;28;20152;-75
2022/04/06 08:31:53;;;;;;;5.15;3.28;;;;;;;;;;10383627;28;20085;-75
2022/04/06 08:36:58;;;;;;;4.75;2.90;;;;;;;;;;10359609;28;20223;-74
2022/04/06 08:42:08;;;;;;;3.42;2.70;;;;;;;;;;10388446;28;20034;-73
2022/04/06 08:47:32;;;;;;;6.38;3.40;;;;;;;;;;10384854;28;20041;-74
2022/04/06 08:52:35;;;;;;;5.97;3.70;;;;;;;;;;10386680;28;20635;-75
2022/04/06 08:57:59;;;;;;;4.43;3.50;;;;;;;;;;10386137;28;20069;-74
2022/04/06 09:03:03;;;;;;;5.90;3.75;;;;;;;;;;10388279;28;20147;-74
2022/04/06 09:08:06;;;;;;;5.60;3.80;;;;;;;;;;10388188;28;20133;-74
2022/04/06 09:13:15;;;;;;;6.90;5.03;;;;;;;;;;10388842;28;20053;-75
2022/04/06 09:18:24;;;;;;;4.22;3.65;;;;;;;;;;10387192;28;20041;-74
2022/04/06 09:23:29;;;;;;;4.20;3.38;;;;;;;;;;10369097;28;20077;-75
2022/04/06 09:28:32;;;;;;;5.05;3.63;;;;;;;;;;10382703;28;20033;-74
2022/04/06 09:33:41;;;;;;;3.83;3.42;;;;;;;;;;10367730;28;20087;-75
2022/04/06 09:38:48;;;;;;;4.10;3.25;;;;;;;;;;10384531;28;20055;-75
2022/04/06 09:43:52;;;;;;;4.45;3.40;;;;;;;;;;10365632;28;20053;-76
2022/04/06 09:48:57;;;;;;;2.80;2.60;;;;;;;;;;10382765;28;20097;-75
2022/04/06 09:54:03;;;;;;;3.33;2.97;;;;;;;;;;10368045;28;20034;-73
2022/04/06 09:59:05;;;;;;;4.70;3.70;;;;;;;;;;10365989;28;20544;-74
2022/04/06 10:04:11;;;;;;;4.55;3.70;;;;;;;;;;10370419;28;20107;-75
2022/04/06 10:09:15;;;;;;;4.50;3.38;;;;;;;;;;10388829;28;20481;-75
2022/04/06 10:14:18;;;;;;;8.63;3.47;;;;;;;;;;10380541;28;20041;-75
2022/04/06 10:19:23;;;;;;;3.90;3.42;;;;;;;;;;10368613;28;20060;-74
2022/04/06 10:24:29;;;;;;;6.22;3.17;;;;;;;;;;10361841;28;20080;-75
2022/04/06 10:29:32;;;;;;;2.88;2.67;;;;;;;;;;10374691;28;20520;-75
2022/04/06 10:34:39;;;;;;;3.40;2.90;;;;;;;;;;10367546;28;20501;-74
2022/04/06 10:39:58;;;;;;;4.70;3.38;;;;;;;;;;10388332;28;20034;-74
2022/04/06 10:45:01;;;;;;;5.82;2.50;;;;;;;;;;10365997;28;20049;-75
2022/04/06 10:50:24;;;;;;;4.47;3.10;;;;;;;;;;10364260;28;20038;-75
2022/04/06 10:55:27;;;;;;;3.05;2.70;;;;;;;;;;10359301;28;20050;-74
2022/04/06 11:00:31;;;;;;;3.05;2.10;;;;;;;;;;10373243;28;20057;-73
2022/04/06 11:05:49;;;;;;;4.05;2.80;;;;;;;;;;10391801;28;20474;-76
2022/04/06 11:10:52;;;;;;;3.92;2.78;;;;;;;;;;10387931;28;20045;-74
2022/04/06 11:15:54;;;;;;;3.88;2.35;;;;;;;;;;10388940;28;20095;-74
2022/04/06 11:21:02;;;;;;;3.30;2.10;;;;;;;;;;10392365;28;20041;-75
2022/04/06 11:26:05;;;;;;;6.03;2.00;;;;;;;;;;10371840;28;20041;-75
2022/04/06 11:31:08;;;;;;;3.70;2.17;;;;;;;;;;10372364;28;20176;-75
2022/04/06 11:36:13;;;;;;;4.20;2.90;;;;;;;;;;10391442;28;20060;-75
2022/04/06 11:41:18;;;;;;;2.80;1.92;;;;;;;;;;10381056;28;20046;-75
2022/04/06 11:46:21;;;;;;;2.45;1.67;;;;;;;;;;10390824;28;20157;-75
2022/04/06 11:51:28;;;;;;;3.17;2.13;;;;;;;;;;10391195;28;20037;-74
2022/04/06 11:56:31;;;;;;;3.63;1.88;;;;;;;;;;10372375;28;20049;-73
2022/04/06 12:01:42;;;;;;;2.05;1.30;;;;;;;;;;10391646;28;20072;-74
2022/04/06 12:06:47;;;;;;;2.53;1.48;;;;;;;;;;10388202;28;20038;-74
2022/04/06 12:11:50;;;;;;;1.52;1.42;;;;;;;;;;10390428;28;20038;-72
2022/04/06 12:16:54;;;;;;;2.20;1.40;;;;;;;;;;10390870;28;20878;-74
2022/04/06 12:22:05;;;;;;;1.65;1.42;;;;;;;;;;10385181;28;20133;-75
2022/04/06 12:27:08;;;;;;;3.25;1.60;;;;;;;;;;10370608;28;20111;-76
2022/04/06 12:32:14;;;;;;;6.68;2.60;;;;;;;;;;10382090;28;20121;-75
2022/04/06 12:37:32;;;;;;;3.13;2.20;;;;;;;;;;10388335;28;20131;-74
2022/04/06 12:42:37;;;;;;;2.22;1.92;;;;;;;;;;10369350;28;20038;-74
2022/04/06 12:47:41;;;;;;;3.53;1.90;;;;;;;;;;10369043;28;20083;-74
2022/04/06 12:52:47;;;;;;;6.55;2.05;;;;;;;;;;10370395;28;20116;-75
2022/04/06 12:57:52;;;;;;;2.63;1.70;;;;;;;;;;10372366;28;20123;-74
2022/04/06 13:02:55;;;;;;;3.05;1.30;;;;;;;;;;10379795;28;20554;-74
2022/04/06 13:08:01;;;;;;;1.58;1.30;;;;;;;;;;10391344;28;20077;-75
2022/04/06 13:13:04;;;;;;;1.48;1.00;;;;;;;;;;10388056;28;20044;-74
2022/04/06 13:18:10;;;;;;;5.60;1.60;;;;;;;;;;10384812;28;20663;-74
2022/04/06 13:23:14;;;;;;;53.38;14.27;;;;;;;;;;10363772;28;20048;-76
2022/04/06 13:28:21;;;;;;;1.75;1.38;;;;;;;;;;10382431;28;20067;-75
2022/04/06 13:33:25;;;;;;;4.05;1.67;;;;;;;;;;10387981;28;20034;-76
2022/04/06 13:38:30;;;;;;;2.65;1.90;;;;;;;;;;10370730;28;20045;-75
2022/04/06 13:43:34;;;;;;;2.45;1.92;;;;;;;;;;10362340;28;20792;-74
2022/04/06 13:48:37;;;;;;;1.98;1.70;;;;;;;;;;10383772;28;20045;-74
2022/04/06 13:53:41;;;;;;;8.25;2.25;;;;;;;;;;10386613;28;20048;-75
2022/04/06 13:58:44;;;;;;;5.03;2.10;;;;;;;;;;10390842;28;20139;-74
2022/04/06 14:03:47;;;;;;;3.15;1.70;;;;;;;;;;10388550;28;20592;-73
2022/04/06 14:08:52;;;;;;;1.55;1.40;;;;;;;;;;10372749;28;21844;-76
2022/04/06 14:13:54;;;;;;;1.23;1.10;;;;;;;;;;10395518;28;20440;-75
2022/04/06 14:18:59;;;;;;;5.97;2.08;;;;;;;;;;10387724;28;20053;-75
2022/04/06 14:24:04;;;;;;;4.35;1.55;;;;;;;;;;10378616;28;20038;-75
2022/04/06 14:29:08;;;;;;;1.23;1.13;;;;;;;;;;10395996;28;20041;-75
2022/04/06 14:34:11;;;;;;;2.88;1.40;;;;;;;;;;10381515;28;20060;-75
2022/04/06 14:39:19;;;;;;;1.75;1.35;;;;;;;;;;10377846;28;20053;-77
2022/04/06 14:44:21;;;;;;;1.88;1.30;;;;;;;;;;10393354;28;20037;-76
2022/04/06 14:49:24;;;;;;;1.48;1.38;;;;;;;;;;10394373;28;20700;-74
2022/04/06 14:54:28;;;;;;;3.50;1.52;;;;;;;;;;10394130;28;20099;-75
2022/04/06 14:59:31;;;;;;;3.50;1.17;;;;;;;;;;10391604;28;20109;-74
2022/04/06 15:04:34;;;;;;;1.50;1.05;;;;;;;;;;10398865;28;20037;-75
2022/04/06 15:09:38;;;;;;;1.42;1.13;;;;;;;;;;10377178;28;20095;-73
2022/04/06 15:14:41;;;;;;;0.82;0.80;;;;;;;;;;10390887;28;20052;-76
2022/04/06 15:19:45;;;;;;;1.38;0.88;;;;;;;;;;10370963;28;20057;-74
2022/04/06 15:24:49;;;;;;;2.83;1.20;;;;;;;;;;10383384;28;20067;-74
2022/04/06 15:29:52;;;;;;;1.20;1.10;;;;;;;;;;10387984;28;20478;-76
2022/04/06 15:40:16;;;;;;;2.10;1.38;;;;;;;;;;10393766;28;20060;-75
2022/04/06 15:45:19;;;;;;;1.20;0.90;;;;;;;;;;10374894;28;20123;-75
2022/04/06 15:50:35;;;;;;;1.95;0.77;;;;;;;;;;10394018;28;20491;-76
2022/04/06 15:55:40;;;;;;;0.82;0.70;;;;;;;;;;10370411;28;20037;-73
2022/04/06 16:00:43;;;;;;;1.60;1.20;;;;;;;;;;10396815;28;20144;-76
2022/04/06 16:05:47;;;;;;;2.30;0.77;;;;;;;;;;10389419;28;20076;-75
2022/04/06 16:10:51;;;;;;;2.85;1.05;;;;;;;;;;10395352;28;20195;-75
2022/04/06 16:15:55;;;;;;;0.98;0.80;;;;;;;;;;10396288;28;20110;-75
2022/04/06 16:20:58;;;;;;;2.22;1.05;;;;;;;;;;10375619;28;20504;-74
2022/04/06 16:26:03;;;;;;;1.70;0.90;;;;;;;;;;10383241;28;20441;-74
2022/04/06 16:31:06;;;;;;;2.65;1.08;;;;;;;;;;10389083;28;20081;-75
2022/04/06 16:36:10;;;;;;;1.05;0.88;;;;;;;;;;10367278;28;20053;-74
2022/04/06 16:41:15;;;;;;;1.35;1.00;;;;;;;;;;10392802;28;20052;-75
2022/04/06 16:46:18;;;;;;;3.80;1.10;;;;;;;;;;10394739;28;20100;-76
2022/04/06 16:56:43;;;;;;;2.10;0.80;;;;;;;;;;10398066;28;20048;-75
2022/04/06 17:01:47;;;;;;;0.88;0.70;;;;;;;;;;10397125;28;20038;-75
2022/04/06 17:06:50;;;;;;;1.48;0.93;;;;;;;;;;10375936;28;20044;-75
2022/04/06 17:11:54;;;;;;;2.73;1.23;;;;;;;;;;10392600;28;20049;-74
2022/04/06 17:16:57;;;;;;;0.45;0.43;;;;;;;;;;10374623;28;20040;-75
2022/04/06 17:22:00;;;;;;;1.33;0.90;;;;;;;;;;10382281;28;20076;-74
2022/04/06 17:27:04;;;;;;;1.17;0.77;;;;;;;;;;10376754;28;20456;-75
2022/04/06 17:32:07;;;;;;;1.10;0.82;;;;;;;;;;10376893;28;20041;-75
2022/04/06 17:37:11;;;;;;;1.52;0.90;;;;;;;;;;10412812;28;20519;-75
2022/04/06 17:42:16;;;;;;;2.03;1.23;;;;;;;;;;10399741;28;20508;-74
2022/04/06 17:47:20;;;;;;;1.77;1.05;;;;;;;;;;10383284;28;20120;-74
2022/04/06 17:52:23;;;;;;;2.55;0.70;;;;;;;;;;10382288;28;20044;-75
2022/04/06 17:57:27;;;;;;;4.70;1.60;;;;;;;;;;10396981;28;20068;-75
2022/04/06 18:02:31;;;;;;;2.20;1.20;;;;;;;;;;10392307;28;20112;-75
2022/04/06 18:07:34;;;;;;;3.83;1.80;;;;;;;;;;10393482;28;20037;-73
2022/04/06 18:18:11;;;;;;;3.03;1.20;;;;;;;;;;10346812;28;20065;-74
2022/04/06 18:23:19;;;;;;;1.85;1.08;;;;;;;;;;10385535;28;20095;-76
2022/04/06 18:28:24;;;;;;;3.47;1.80;;;;;;;;;;10393150;28;20533;-75
2022/04/06 18:33:26;;;;;;;2.35;1.58;;;;;;;;;;10392832;28;20030;-75
2022/04/06 18:38:30;;;;;;;2.25;1.48;;;;;;;;;;10367934;28;20497;-75
2022/04/06 18:43:35;;;;;;;1.45;1.08;;;;;;;;;;10389660;28;20242;-75
2022/04/06 18:48:38;;;;;;;2.60;1.25;;;;;;;;;;10377204;28;20049;-74
2022/04/06 18:53:41;;;;;;;2.20;1.20;;;;;;;;;;10406395;22;20179;-70
2022/04/06 18:58:45;;;;;;;12.30;4.55;;;;;;;;;;10396081;28;20048;-72
2022/04/06 19:03:48;;;;;;;3.30;1.90;;;;;;;;;;10388048;28;20121;-70
2022/04/06 19:08:52;;;;;;;4.05;2.10;;;;;;;;;;10413723;22;20049;-73
2022/04/06 19:13:57;;;;;;;4.78;1.77;;;;;;;;;;10381204;28;20038;-73
2022/04/06 19:19:00;;;;;;;4.78;1.92;;;;;;;;;;10344818;28;20073;-71
2022/04/06 19:24:04;;;;;;;3.10;1.65;;;;;;;;;;10360045;28;20121;-73
2022/04/06 19:29:09;;;;;;;4.53;2.33;;;;;;;;;;10354627;28;20044;-72
2022/04/06 19:34:14;;;;;;;7.22;2.85;;;;;;;;;;10365548;28;20045;-72
2022/04/06 19:39:16;;;;;;;;;;;;;;;;;;10340457;28;20039;-72
2022/04/06 19:44:21;;;;;;;4.32;1.90;;;;;;;;;;10359103;28;19936;-73
2022/04/06 19:49:24;;;;;;;6.60;2.80;;;;;;;;;;10356877;28;20038;-72
2022/04/06 19:54:27;;;;;;;3.37;1.97;;;;;;;;;;10343980;28;20209;-73
2022/04/06 19:59:32;;;;;;;4.72;2.42;;;;;;;;;;10343609;28;20038;-74
2022/04/06 20:04:36;;;;;;;2.92;1.85;;;;;;;;;;10359377;28;20125;-71
2022/04/06 20:09:39;;;;;;;3.83;1.60;;;;;;;;;;10356002;28;20486;-71
2022/04/06 20:14:43;;;;;;;5.93;1.50;;;;;;;;;;10358400;28;20058;-74
2022/04/06 20:19:47;;;;;;;2.17;1.42;;;;;;;;;;10361573;28;20472;-73
2022/04/06 20:24:49;;;;;;;1.63;1.20;;;;;;;;;;10352072;28;20041;-72
2022/04/06 20:29:54;;;;;;;6.43;2.70;;;;;;;;;;10354574;28;20064;-72
2022/04/06 20:35:02;;;;;;;2.22;1.23;;;;;;;;;;10347621;28;20026;-70
2022/04/06 20:40:09;;;;;;;2.47;1.02;;;;;;;;;;10337559;28;20042;-73
2022/04/06 20:45:13;;;;;;;2.47;1.40;;;;;;;;;;10357566;28;20041;-72
2022/04/06 20:50:16;;;;;;;1.40;1.08;;;;;;;;;;10361610;28;20088;-71
2022/04/06 20:55:19;;;;;;;2.22;1.15;;;;;;;;;;10340010;28;20042;-73
2022/04/06 21:00:24;;;;;;;2.08;0.88;;;;;;;;;;10355045;28;20061;-70
2022/04/06 21:05:27;;;;;;;2.67;1.30;;;;;;;;;;10356987;28;20451;-72
2022/04/06 21:10:30;;;;;;;1.42;0.88;;;;;;;;;;10340481;28;20038;-71
2022/04/06 21:15:35;;;;;;;0.98;0.70;;;;;;;;;;10355360;28;20382;-71
2022/04/06 21:20:38;;;;;;;3.47;0.95;;;;;;;;;;10350560;28;20125;-72
2022/04/06 21:25:42;;;;;;;2.22;1.23;;;;;;;;;;10353722;28;20080;-72
2022/04/06 21:30:47;;;;;;;1.70;1.10;;;;;;;;;;10354519;28;20100;-73
2022/04/06 21:35:50;;;;;;;3.60;1.48;;;;;;;;;;10337375;28;20157;-73
2022/04/06 21:40:53;;;;;;;2.45;1.00;;;;;;;;;;10355438;28;20042;-69
2022/04/06 21:45:57;;;;;;;1.30;0.75;;;;;;;;;;10357762;28;20049;-70
2022/04/06 21:51:01;;;;;;;2.22;1.08;;;;;;;;;;10338202;28;20042;-72
2022/04/06 21:56:04;;;;;;;2.03;1.40;;;;;;;;;;10365102;28;20505;-72
2022/04/06 22:01:08;;;;;;;2.37;1.30;;;;;;;;;;10352718;28;20295;-72
2022/04/06 22:06:11;;;;;;;1.30;0.65;;;;;;;;;;10366835;28;20301;-72
2022/04/06 22:11:14;;;;;;;3.25;1.40;;;;;;;;;;10357322;28;20050;-72
2022/04/06 22:16:18;;;;;;;4.07;1.80;;;;;;;;;;10361877;28;20487;-72
2022/04/06 22:21:22;;;;;;;0.75;0.68;;;;;;;;;;10360715;28;20034;-72
2022/04/06 22:26:25;;;;;;;3.17;1.08;;;;;;;;;;10359900;28;20063;-71
2022/04/06 22:31:30;;;;;;;1.83;1.05;;;;;;;;;;10365938;28;20042;-70
2022/04/06 22:36:34;;;;;;;1.17;0.80;;;;;;;;;;10355780;28;20761;-71
2022/04/06 22:41:37;;;;;;;1.25;1.02;;;;;;;;;;10341878;28;20046;-68
2022/04/06 22:46:41;;;;;;;1.83;1.15;;;;;;;;;;10353471;28;20196;-71
2022/04/06 22:51:46;;;;;;;0.40;0.40;;;;;;;;;;10354915;28;20061;-72
2022/04/06 22:56:49;;;;;;;0.97;0.60;;;;;;;;;;10347526;28;20038;-72
2022/04/06 23:01:54;;;;;;;1.45;0.65;;;;;;;;;;10339609;28;20288;-72
2022/04/06 23:06:57;;;;;;;1.42;0.70;;;;;;;;;;10356675;28;20058;-72
2022/04/06 23:12:00;;;;;;;0.85;0.70;;;;;;;;;;10365228;28;20483;-73
2022/04/06 23:17:05;;;;;;;1.15;0.80;;;;;;;;;;10358479;28;20041;-72
2022/04/06 23:22:09;;;;;;;1.10;1.00;;;;;;;;;;10360346;28;20073;-72
2022/04/06 23:27:12;;;;;;;1.73;1.30;;;;;;;;;;10361075;28;20516;-73
2022/04/06 23:32:17;;;;;;;1.17;0.83;;;;;;;;;;10345736;28;20046;-72
2022/04/06 23:37:20;;;;;;;1.30;1.10;;;;;;;;;;10339041;28;20100;-72
2022/04/06 23:42:23;;;;;;;2.67;1.27;;;;;;;;;;10358999;28;20045;-70
2022/04/06 23:47:27;;;;;;;3.53;1.20;;;;;;;;;;10341750;28;20477;-71
2022/04/06 23:52:31;;;;;;;0.70;0.65;;;;;;;;;;10359462;28;20124;-72
2022/04/06 23:57:33;;;;;;;2.78;1.50;;;;;;;;;;10340619;28;20045;-70
